Time;durP1;ratioP1;P1;durP2;ratioP2;P2;SDS_P1;SDS_P2;PMS_P1;PMS_P2;Temp;Humidity;BMP_temperature;BMP_pressure;BME280_temperature;BME280_humidity;BME280_pressure;Samples;Min_cycle;Max_cycle;Signal;HPM_P1;HPM_P2
2023/08/31 00:01:59;;;;;;;;;;;17.00;98.40;;;17.21;63.98;98141.28;4951289;28;114361;-88
2023/08/31 00:04:28;;;;;;;;;;;17.00;98.40;;;17.20;64.02;98141.69;4944761;28;123102;-90
2023/08/31 00:06:56;;;;;;;;;;;17.00;98.40;;;17.18;64.01;98153.19;4936307;28;124307;-90
2023/08/31 00:09:24;;;;;;;;;;;17.00;98.50;;;17.18;63.74;98141.22;4947850;28;114624;-89
2023/08/31 00:11:50;;;;;;;;;;;16.90;98.40;;;17.19;63.77;98131.66;4941633;28;114024;-88
2023/08/31 00:14:17;;;;;;;;;;;17.00;98.40;;;17.22;63.69;98131.75;4942052;28;124832;-88
2023/08/31 00:16:45;;;;;;;;;;;17.00;98.30;;;17.26;63.21;98139.38;4947226;28;123821;-89
2023/08/31 00:19:14;;;;;;;;;;;17.00;98.30;;;17.29;63.46;98147.00;4951366;28;113647;-89
2023/08/31 00:21:40;;;;;;;;;;;17.00;98.10;;;17.31;62.86;98145.44;4947037;28;113889;-89
2023/08/31 00:24:09;;;;;;;;;;;17.00;98.00;;;17.30;62.62;98154.19;4930059;28;124005;-89
2023/08/31 00:26:42;;;;;;;;;;;17.00;98.00;;;17.25;62.61;98155.31;4939450;28;124107;-89
2023/08/31 00:29:16;;;;;;;;;;;17.00;97.90;;;17.22;62.58;98158.84;4947647;28;114511;-90
2023/08/31 00:31:44;;;;;;;;;;;17.00;97.80;;;17.20;62.56;98164.00;4936901;28;113580;-89
2023/08/31 00:34:14;;;;;;;;;;;17.00;97.80;;;17.17;62.46;98161.97;4949698;28;124959;-88
2023/08/31 00:36:40;;;;;;;;;;;16.90;97.70;;;17.12;62.53;98167.84;4952339;28;124500;-88
2023/08/31 00:39:10;;;;;;;;;;;16.90;97.70;;;17.09;62.51;98172.19;4939852;28;115145;-89
2023/08/31 00:41:37;;;;;;;;;;;16.90;97.70;;;17.05;62.54;98182.47;4950773;28;115420;-88
2023/08/31 00:44:04;;;;;;;;;;;16.80;97.70;;;16.99;62.65;98172.78;4941126;28;124191;-87
2023/08/31 00:46:31;;;;;;;;;;;16.80;97.70;;;16.96;62.78;98173.53;4934315;28;123129;-89
2023/08/31 00:48:58;;;;;;;;;;;16.70;97.70;;;16.91;62.99;98165.47;4931783;28;114474;-89
2023/08/31 00:51:25;;;;;;;;;;;16.70;97.80;;;16.88;62.99;98177.38;4946806;28;113596;-90
2023/08/31 00:53:55;;;;;;;;;;;16.70;97.80;;;16.86;63.25;98182.50;4936279;28;124832;-89
2023/08/31 00:56:21;;;;;;;;;;;16.70;97.80;;;16.82;63.27;98176.88;4946895;28;123948;-88
2023/08/31 00:58:48;;;;;;;;;;;16.70;97.90;;;16.81;63.31;98178.03;4936736;28;114541;-91
2023/08/31 01:01:17;;;;;;;;;;;16.60;97.80;;;16.80;63.27;98170.84;4947128;28;113754;-89
2023/08/31 01:04:02;;;;;;;;;;;16.60;97.90;;;16.78;63.07;98156.47;4935413;28;125013;-90
2023/08/31 01:06:50;;;;;;;;;;;16.60;97.80;;;16.72;63.10;98169.06;4938568;28;124008;-90
2023/08/31 01:09:26;;;;;;;;;;;16.60;97.90;;;16.73;63.40;98160.31;4953489;28;113653;-89
2023/08/31 01:11:55;;;;;;;;;;;16.60;97.90;;;16.73;63.31;98154.72;4953018;28;113774;-91
2023/08/31 01:14:25;;;;;;;;;;;16.60;97.90;;;16.75;62.85;98152.38;4951214;28;124277;-90
2023/08/31 01:16:52;;;;;;;;;;;16.60;97.90;;;16.77;63.11;98161.22;4929433;28;124099;-89
2023/08/31 01:19:38;;;;;;;;;;;16.60;98.00;;;16.78;63.23;98165.63;4941678;28;114325;-89
2023/08/31 01:22:09;;;;;;;;;;;16.60;98.00;;;16.81;63.11;98168.88;4941960;28;113967;-89
2023/08/31 01:24:35;;;;;;;;;;;16.60;98.00;;;16.80;63.14;98178.41;4943185;28;123942;-89
2023/08/31 01:27:02;;;;;;;;;;;16.60;98.00;;;16.76;63.28;98179.13;4933733;28;123527;-89
2023/08/31 01:29:31;;;;;;;;;;;16.60;98.00;;;16.75;63.38;98168.31;4949411;28;115106;-89
2023/08/31 01:31:58;;;;;;;;;;;16.50;97.90;;;16.72;63.51;98175.44;4936692;28;114069;-89
2023/08/31 01:34:26;;;;;;;;;;;16.60;98.00;;;16.69;63.25;98176.19;4917673;28;123682;-88
2023/08/31 01:36:56;;;;;;;;;;;16.50;97.90;;;16.64;63.47;98184.84;4931078;28;124048;-89
2023/08/31 01:39:27;;;;;;;;;;;16.50;98.00;;;16.61;63.70;98180.03;4914571;28;114905;-89
2023/08/31 01:41:58;;;;;;;;;;;16.40;98.00;;;16.56;63.68;98189.47;4933830;28;113964;-90
2023/08/31 01:44:27;;;;;;;;;;;16.40;98.00;;;16.51;63.68;98197.34;4930339;28;123985;-89
2023/08/31 01:47:02;;;;;;;;;;;16.40;98.00;;;16.47;63.77;98191.69;4924971;28;124206;-89
2023/08/31 01:49:28;;;;;;;;;;;16.00;97.90;;;16.43;64.05;98204.72;4937369;28;114913;-89
2023/08/31 01:51:55;;;;;;;;;;;16.30;98.10;;;16.39;64.16;98200.25;4968359;28;113587;-90
2023/08/31 01:54:21;;;;;;;;;;;16.20;98.10;;;16.38;64.36;98205.03;4965180;28;123418;-89
2023/08/31 01:56:47;;;;;;;;;;;16.30;98.30;;;16.35;64.23;98198.19;4931055;28;123746;-89
2023/08/31 01:59:13;;;;;;;;;;;16.20;98.30;;;16.33;64.50;98203.34;4931902;28;114389;-90
2023/08/31 02:01:40;;;;;;;;;;;16.20;98.30;;;16.31;64.44;98200.13;4937368;28;113749;-90
2023/08/31 02:04:09;;;;;;;;;;;16.20;98.40;;;16.31;64.70;98200.13;4952009;28;124190;-89
2023/08/31 02:06:35;;;;;;;;;;;16.20;98.50;;;16.28;64.67;98194.44;4937816;28;123149;-89
2023/08/31 02:09:01;;;;;;;;;;;16.10;98.50;;;16.26;64.64;98192.03;4943376;28;113888;-89
2023/08/31 02:11:31;;;;;;;;;;;16.10;98.60;;;16.27;65.07;98190.84;4936771;28;113859;-89
2023/08/31 02:13:58;;;;;;;;;;;16.10;98.60;;;16.28;64.96;98188.88;4923356;28;124906;-89
2023/08/31 02:16:24;;;;;;;;;;;16.10;98.60;;;16.27;64.86;98193.63;4947147;28;123806;-90
2023/08/31 02:18:50;;;;;;;;;;;16.10;98.70;;;16.27;64.81;98193.63;4918853;28;115348;-89
2023/08/31 02:21:17;;;;;;;;;;;16.10;98.70;;;16.28;64.98;98200.84;4944655;28;114596;-89
2023/08/31 02:23:48;;;;;;;;;;;16.10;98.80;;;16.26;64.99;98194.81;4934477;28;124278;-89
2023/08/31 02:26:14;;;;;;;;;;;16.10;98.90;;;16.26;65.23;98202.38;4929592;28;123412;-90
2023/08/31 02:28:41;;;;;;;;;;;16.00;98.90;;;16.22;65.25;98196.72;4942399;28;114446;-88
2023/08/31 02:31:07;;;;;;;;;;;16.10;98.90;;;16.23;65.40;98203.13;4922718;28;113006;-89
2023/08/31 02:33:33;;;;;;;;;;;16.00;99.00;;;16.24;65.27;98201.94;4938722;28;124575;-89
2023/08/31 02:36:02;;;;;;;;;;;16.00;99.00;;;16.24;65.45;98205.53;4931173;28;123174;-89
2023/08/31 02:38:28;;;;;;;;;;;16.00;99.00;;;16.26;65.37;98208.75;4932717;28;113549;-89
2023/08/31 02:40:54;;;;;;;;;;;16.00;99.00;;;16.27;65.35;98215.13;4949802;28;113109;-90
2023/08/31 02:43:21;;;;;;;;;;;16.10;99.00;;;16.28;65.36;98211.16;4943639;28;124018;-87
2023/08/31 02:45:47;;;;;;;;;;;16.00;99.00;;;16.32;65.35;98228.78;4918846;28;123778;-91
2023/08/31 02:48:19;;;;;;;;;;;16.10;99.10;;;16.37;65.49;98225.72;4926954;28;113808;-89
2023/08/31 02:50:46;;;;;;;;;;;16.10;99.20;;;16.40;65.35;98224.19;4931597;28;113636;-89
2023/08/31 02:53:12;;;;;;;;;;;16.10;99.20;;;16.44;65.49;98225.06;4948584;28;124367;-89
2023/08/31 02:55:38;;;;;;;;;;;16.10;99.20;;;16.43;65.00;98227.03;4939683;28;123764;-89
2023/08/31 02:58:05;;;;;;;;;;;16.10;99.20;;;16.43;65.20;98229.03;4950535;28;114437;-89
2023/08/31 03:00:33;;;;;;;;;;;16.20;99.20;;;16.43;65.34;98223.44;4939838;28;113663;-89
2023/08/31 03:02:59;;;;;;;;;;;16.20;99.20;;;16.42;65.41;98214.28;4941023;28;124266;-89
2023/08/31 03:05:25;;;;;;;;;;;16.20;99.10;;;16.44;65.32;98219.47;4939930;28;124492;-89
2023/08/31 03:07:52;;;;;;;;;;;16.20;99.10;;;16.45;65.25;98227.50;4948272;28;115598;-89
2023/08/31 03:10:18;;;;;;;;;;;16.20;99.10;;;16.46;65.08;98229.09;4941553;28;115054;-89
2023/08/31 03:12:44;;;;;;;;;;;16.20;99.10;;;16.45;65.20;98226.69;4960908;28;123492;-89
2023/08/31 03:15:11;;;;;;;;;;;16.20;99.10;;;16.43;65.08;98217.88;4943745;28;123147;-89
2023/08/31 03:17:37;;;;;;;;;;;16.20;99.10;;;16.40;65.25;98230.56;4934344;28;114623;-89
2023/08/31 03:20:06;;;;;;;;;;;16.20;99.10;;;16.37;65.15;98233.28;4945913;28;113945;-89
2023/08/31 03:22:32;;;;;;;;;;;16.10;99.10;;;16.33;65.19;98241.56;4937882;28;124353;-88
2023/08/31 03:24:58;;;;;;;;;;;16.10;99.10;;;16.29;65.19;98233.13;4933091;28;123771;-90
2023/08/31 03:27:27;;;;;;;;;;;16.10;99.10;;;16.25;65.33;98232.22;4927814;28;112840;-89
2023/08/31 03:29:54;;;;;;;;;;;16.10;99.10;;;16.21;65.62;98234.13;4934157;28;112806;-89
2023/08/31 03:32:23;;;;;;;;;;;18.40;99.90;;;16.16;65.76;98241.97;4925255;28;125032;-89
2023/08/31 03:34:50;;;;;;;;;;;16.00;99.20;;;16.13;65.63;98240.72;4946737;28;123941;-89
2023/08/31 03:37:16;;;;;;;;;;;15.90;99.20;;;16.11;65.74;98240.25;4935801;28;114836;-88
2023/08/31 03:39:42;;;;;;;;;;;15.90;99.20;;;16.08;65.93;98229.84;4930236;28;113653;-89
2023/08/31 03:42:09;;;;;;;;;;;15.90;99.20;;;16.05;65.82;98236.16;4942807;28;124540;-89
2023/08/31 03:44:37;;;;;;;;;;;15.90;99.30;;;16.05;65.95;98236.16;4946627;28;98222;-89
2023/08/31 03:47:04;;;;;;;;;;;15.90;99.30;;;16.03;65.84;98228.16;4944403;28;114638;-88
2023/08/31 03:49:34;;;;;;;;;;;15.90;99.30;;;16.02;65.95;98243.25;4943099;28;113600;-89
2023/08/31 03:52:01;;;;;;;;;;;15.90;99.40;;;16.02;65.79;98253.59;4926343;28;123536;-89
2023/08/31 03:54:27;;;;;;;;;;;15.90;99.40;;;16.02;65.89;98254.41;4932051;28;124048;-90
2023/08/31 03:56:54;;;;;;;;;;;15.80;99.30;;;16.02;66.00;98262.75;4936739;28;115318;-88
2023/08/31 03:59:20;;;;;;;;;;;15.80;99.40;;;16.02;65.96;98264.75;4935390;28;114787;-86
2023/08/31 04:01:46;;;;;;;;;;;15.80;99.40;;;16.01;66.07;98261.16;4954539;28;123646;-89
2023/08/31 04:04:12;;;;;;;;;;;15.80;99.30;;;16.00;65.96;98258.72;4946937;28;123234;-89
2023/08/31 04:06:39;;;;;;;;;;;15.80;99.40;;;15.99;65.95;98265.47;4942682;28;114712;-89
2023/08/31 04:09:05;;;;;;;;;;;15.70;99.30;;;15.98;65.90;98269.41;4934704;28;113711;-88
2023/08/31 04:11:31;;;;;;;;;;;15.80;99.40;;;15.97;65.92;98262.22;4930380;28;124008;-88
2023/08/31 04:14:01;;;;;;;;;;;15.80;99.40;;;15.96;66.13;98266.16;4941869;28;124004;-88
2023/08/31 04:16:27;;;;;;;;;;;15.70;99.40;;;15.93;66.03;98261.31;4934179;28;114156;-88
2023/08/31 04:18:55;;;;;;;;;;;15.70;99.40;;;15.93;65.85;98267.69;4940572;28;114088;-88
2023/08/31 04:21:21;;;;;;;;;;;18.60;99.90;;;15.93;66.04;98258.53;4931348;28;124312;-90
2023/08/31 04:23:47;;;;;;;;;;;15.70;99.40;;;15.92;66.31;98260.53;4961232;28;123880;-90
2023/08/31 04:26:17;;;;;;;;;;;15.70;99.40;;;15.93;66.08;98267.69;4943767;28;114480;-89
2023/08/31 04:28:43;;;;;;;;;;;15.70;99.40;;;15.94;65.90;98268.53;4948928;28;113783;-89
2023/08/31 04:31:12;;;;;;;;;;;15.70;99.40;;;15.94;65.91;98265.75;4917221;28;123772;-90
2023/08/31 04:33:40;;;;;;;;;;;15.70;99.40;;;15.94;65.82;98283.28;4935040;28;124050;-89
2023/08/31 04:36:06;;;;;;;;;;;15.70;99.30;;;15.91;66.21;98281.22;4933653;28;115111;-89
2023/08/31 04:38:34;;;;;;;;;;;15.70;99.30;;;15.90;65.98;98285.16;4931333;28;113569;-89
2023/08/31 04:41:03;;;;;;;;;;;15.70;99.30;;;15.88;65.81;98279.94;4940817;28;124146;-89
2023/08/31 04:43:31;;;;;;;;;;;15.70;99.30;;;15.85;65.65;98283.47;4948532;28;124403;-90
2023/08/31 04:45:57;;;;;;;;;;;15.70;99.30;;;15.82;66.06;98289.72;4919002;28;114490;-89
2023/08/31 04:48:24;;;;;;;;;;;15.60;99.20;;;15.80;65.74;98294.88;4947939;28;114581;-90
2023/08/31 04:50:55;;;;;;;;;;;15.60;99.20;;;15.79;66.04;98295.22;4932362;28;124161;-89
2023/08/31 04:53:21;;;;;;;;;;;15.60;99.20;;;15.76;65.81;98290.38;4930249;28;124287;-90
2023/08/31 04:55:48;;;;;;;;;;;15.50;99.20;;;15.75;65.75;98286.78;4939561;28;114581;-88
2023/08/31 04:58:16;;;;;;;;;;;15.60;99.30;;;15.76;65.92;98296.75;4935060;28;114072;-88
2023/08/31 05:00:44;;;;;;;;;;;15.50;99.30;;;15.75;65.60;98292.34;4934714;28;124632;-89
2023/08/31 05:03:10;;;;;;;;;;;15.50;99.30;;;15.77;65.88;98303.94;4929322;28;124120;-88
2023/08/31 05:05:37;;;;;;;;;;;15.60;99.30;;;15.77;65.75;98295.59;4925035;28;113851;-89
2023/08/31 05:08:03;;;;;;;;;;;15.50;99.30;;;15.78;65.93;98300.00;4917123;28;112605;-88
2023/08/31 05:10:32;;;;;;;;;;;15.60;99.30;;;15.79;65.85;98304.38;4965214;28;123767;-89
2023/08/31 05:12:58;;;;;;;;;;;15.60;99.30;;;15.82;66.00;98311.22;4925182;28;124403;-89
2023/08/31 05:15:27;;;;;;;;;;;15.60;99.30;;;15.85;65.82;98316.88;4917730;28;114426;-89
2023/08/31 05:17:59;;;;;;;;;;;15.60;99.30;;;15.88;65.46;98318.94;4927402;28;113774;-88
2023/08/31 05:20:25;;;;;;;;;;;15.60;99.30;;;15.88;65.55;98316.16;4931039;28;123335;-88
2023/08/31 05:22:51;;;;;;;;;;;15.60;99.30;;;15.89;65.40;98315.00;4923792;28;124082;-89
2023/08/31 05:25:18;;;;;;;;;;;15.60;99.30;;;15.92;65.67;98315.44;4924213;28;115265;-88
2023/08/31 05:27:44;;;;;;;;;;;15.60;99.20;;;15.94;65.38;98324.25;4921866;28;112665;-88
2023/08/31 05:30:11;;;;;;;;;;;15.70;99.30;;;15.97;65.16;98329.91;4922531;28;124596;-87
2023/08/31 05:32:38;;;;;;;;;;;15.70;99.20;;;16.01;65.50;98330.81;4910270;28;123407;-87
2023/08/31 05:35:04;;;;;;;;;;;15.70;99.20;;;16.06;64.93;98332.50;4924018;28;115269;-88
2023/08/31 05:37:35;;;;;;;;;;;15.70;99.20;;;16.06;64.95;98340.88;4928088;28;113387;-88
2023/08/31 05:40:06;;;;;;;;;;;15.70;99.10;;;16.05;64.89;98337.28;4915310;28;124758;-88
2023/08/31 05:42:32;;;;;;;;;;;15.70;99.10;;;16.03;65.17;98334.03;4929994;28;124337;-88
2023/08/31 05:45:05;;;;;;;;;;;15.70;99.10;;;16.04;65.02;98341.25;4922282;28;116392;-88
2023/08/31 05:47:34;;;;;;;;;;;15.80;99.10;;;16.04;64.86;98335.66;4925624;28;112842;-88
2023/08/31 05:50:01;;;;;;;;;;;15.80;99.00;;;16.02;64.90;98340.78;4931288;28;123774;-88
2023/08/31 05:52:27;;;;;;;;;;;15.80;99.00;;;16.02;64.98;98339.97;4910751;28;123945;-87
2023/08/31 05:54:54;;;;;;;;;;;15.70;99.00;;;16.00;64.98;98343.13;4930889;28;114838;-87
2023/08/31 05:57:23;;;;;;;;;;;15.70;99.00;;;15.98;65.02;98347.44;4915012;28;112671;-88
2023/08/31 05:59:50;;;;;;;;;;;15.70;99.00;;;15.97;65.13;98346.63;4924172;28;126269;-88
2023/08/31 06:02:18;;;;;;;;;;;15.70;99.00;;;15.95;65.08;98351.75;4899031;28;124397;-88
2023/08/31 06:04:44;;;;;;;;;;;15.70;99.00;;;15.96;65.12;98347.81;4911226;28;113998;-88
2023/08/31 06:07:10;;;;;;;;;;;15.70;99.00;;;15.98;65.17;98351.03;4902836;28;112225;-88
2023/08/31 06:09:37;;;;;;;;;;;15.70;99.00;;;15.99;65.04;98354.63;4902712;28;124472;-88
2023/08/31 06:12:13;;;;;;;;;;;15.70;99.00;;;16.01;65.18;98363.44;4937958;28;124331;-87
2023/08/31 06:14:41;;;;;;;;;;;15.80;99.10;;;16.02;65.31;98359.50;4939932;28;114391;-88
2023/08/31 06:17:08;;;;;;;;;;;15.80;99.10;;;16.05;65.20;98353.19;4935623;28;113886;-88
2023/08/31 06:19:36;;;;;;;;;;;15.80;99.10;;;16.06;65.38;98371.53;4950012;28;124919;-87
2023/08/31 06:22:05;;;;;;;;;;;15.80;99.10;;;16.08;65.17;98366.41;4942690;28;124148;-88
2023/08/31 06:24:32;;;;;;;;;;;15.80;99.10;;;16.12;64.97;98372.88;4938142;28;114460;-86
2023/08/31 06:26:59;;;;;;;;;;;15.80;99.10;;;16.14;64.75;98376.09;4942956;28;115419;-87
2023/08/31 06:29:26;;;;;;;;;;;15.80;99.00;;;16.19;65.10;98377.81;4940927;28;124308;-88
2023/08/31 06:31:56;;;;;;;;;;;15.90;99.10;;;16.24;64.78;98383.94;4947512;28;124131;-88
2023/08/31 06:34:25;;;;;;;;;;;15.90;99.00;;;16.31;64.74;98372.97;4949545;28;114221;-87
2023/08/31 06:36:52;;;;;;;;;;;16.40;99.30;;;16.43;64.52;98380.41;4939576;28;113634;-87
2023/08/31 06:39:18;;;;;;;;;;;16.00;99.10;;;16.52;63.97;98383.00;4935723;28;124584;-87
2023/08/31 06:41:45;;;;;;;;;;;16.10;99.00;;;16.60;63.81;98373.63;4941129;28;125012;-87
2023/08/31 06:44:11;;;;;;;;;;;16.20;99.00;;;16.68;63.71;98374.59;4940342;28;114995;-89
2023/08/31 06:46:37;;;;;;;;;;;16.20;98.90;;;16.80;63.57;98387.66;4940631;28;113708;-88
2023/08/31 06:49:04;;;;;;;;;;;16.30;98.90;;;16.90;63.30;98378.69;4946093;28;123729;-86
2023/08/31 06:51:34;;;;;;;;;;;16.40;98.80;;;17.00;62.61;98386.50;4915751;28;124799;-87
2023/08/31 06:54:06;;;;;;;;;;;16.50;98.70;;;17.05;62.39;98394.59;4948032;28;114072;-88
2023/08/31 06:56:37;;;;;;;;;;;16.50;98.50;;;17.09;62.72;98392.72;4936735;28;113738;-87
2023/08/31 06:59:04;;;;;;;;;;;16.50;98.50;;;17.17;62.55;98386.09;4943637;28;124509;-88
2023/08/31 07:01:32;;;;;;;;;;;16.60;98.50;;;17.27;62.08;98386.69;4948126;28;124359;-88
2023/08/31 07:03:58;;;;;;;;;;;16.70;98.40;;;17.32;61.65;98387.19;4945885;28;114459;-88
2023/08/31 07:06:25;;;;;;;;;;;16.80;98.20;;;17.34;60.91;98386.84;4946283;28;113699;-86
2023/08/31 07:08:51;;;;;;;;;;;16.80;97.80;;;17.35;60.55;98391.22;4945293;28;124679;-87
2023/08/31 07:11:18;;;;;;;;;;;16.80;97.50;;;17.36;60.15;98404.03;4944813;28;124592;-87
2023/08/31 07:13:44;;;;;;;;;;;16.90;97.20;;;17.37;58.92;98395.28;4923027;28;115323;-87
2023/08/31 07:16:10;;;;;;;;;;;16.90;96.60;;;17.39;59.02;98403.31;4933375;28;114635;-87
2023/08/31 07:18:37;;;;;;;;;;;16.90;96.60;;;17.40;58.76;98404.91;4936009;28;124104;-85
2023/08/31 07:21:04;;;;;;;;;;;17.00;96.30;;;17.41;58.76;98406.53;4935183;28;124074;-84
2023/08/31 07:23:33;;;;;;;;;;;17.00;96.30;;;17.44;58.77;98397.41;4914392;28;114496;-88
2023/08/31 07:26:04;;;;;;;;;;;17.10;96.30;;;17.46;58.62;98403.44;4943231;28;114272;-87
2023/08/31 07:28:33;;;;;;;;;;;17.10;96.20;;;17.54;58.66;98399.59;4930638;28;124250;-86
2023/08/31 07:31:06;;;;;;;;;;;17.10;96.20;;;17.61;57.86;98416.50;4944593;28;122999;-86
2023/08/31 07:33:36;;;;;;;;;;;17.20;95.90;;;17.63;57.57;98419.75;4925068;28;114405;-84
2023/08/31 07:36:06;;;;;;;;;;;17.20;95.80;;;17.71;57.48;98422.69;4948918;28;113389;-84
2023/08/31 07:38:32;;;;;;;;;;;17.20;95.60;;;17.79;56.99;98433.66;4922847;28;123349;-85
2023/08/31 07:40:59;;;;;;;;;;;17.30;95.50;;;17.88;56.12;98425.03;4931561;28;124108;-84
2023/08/31 07:43:26;;;;;;;;;;;17.40;95.00;;;17.97;56.38;98427.59;4942744;28;114005;-84
2023/08/31 07:45:53;;;;;;;;;;;17.40;95.20;;;18.11;56.47;98427.88;4932839;28;112918;-85
2023/08/31 07:48:20;;;;;;;;;;;17.50;95.30;;;18.24;55.98;98425.69;4929255;28;124583;-85
2023/08/31 07:50:46;;;;;;;;;;;17.70;95.10;;;18.35;55.38;98426.69;4933649;28;124510;-86
2023/08/31 07:53:12;;;;;;;;;;;17.80;94.90;;;18.46;55.16;98429.69;4919867;28;114847;-85
2023/08/31 07:55:39;;;;;;;;;;;17.90;94.70;;;18.54;54.01;98426.63;4964428;28;113890;-84
2023/08/31 07:58:09;;;;;;;;;;;17.90;94.10;;;18.63;53.15;98437.53;4930874;28;124881;-85
2023/08/31 08:00:35;;;;;;;;;;;18.00;93.70;;;18.70;51.73;98426.47;4919844;28;123904;-84
2023/08/31 08:03:01;;;;;;;;;;;18.10;92.80;;;18.77;50.80;98423.78;4924021;28;117456;-84
2023/08/31 08:05:28;;;;;;;;;;;18.20;92.30;;;18.83;49.69;98420.69;4922943;28;113814;-83
2023/08/31 08:07:56;;;;;;;;;;;18.20;91.40;;;18.89;48.54;98425.59;4933392;28;124847;-85
2023/08/31 08:10:23;;;;;;;;;;;18.30;91.30;;;18.94;48.36;98422.47;4930545;28;124025;-84
2023/08/31 08:12:49;;;;;;;;;;;18.30;90.50;;;19.01;48.00;98420.94;4927961;28;113957;-84
2023/08/31 08:15:17;;;;;;;;;;;18.40;90.30;;;19.06;48.51;98431.81;4937997;28;113947;-84
2023/08/31 08:17:44;;;;;;;;;;;18.50;90.40;;;19.12;47.93;98430.31;4942294;28;124444;-85
2023/08/31 08:20:11;;;;;;;;;;;18.60;90.10;;;19.16;47.22;98434.78;4933836;28;124585;-84
2023/08/31 08:22:38;;;;;;;;;;;18.60;90.00;;;19.18;47.27;98439.97;4942172;28;113187;-85
2023/08/31 08:25:05;;;;;;;;;;;18.70;89.50;;;19.18;47.35;98438.00;4936614;28;113595;-85
2023/08/31 08:27:33;;;;;;;;;;;18.70;89.50;;;19.20;47.56;98432.81;4942176;28;123717;-86
2023/08/31 08:29:59;;;;;;;;;;;18.70;89.10;;;19.23;47.29;98436.06;4943731;28;123459;-85
2023/08/31 08:32:25;;;;;;;;;;;18.80;89.10;;;19.25;45.97;98442.88;4942310;28;114231;-86
2023/08/31 08:34:56;;;;;;;;;;;18.80;87.00;;;19.24;45.36;98449.69;4936283;28;113911;-85
2023/08/31 08:37:25;;;;;;;;;;;18.80;86.10;;;19.20;44.80;98444.03;4934651;28;124494;-85
2023/08/31 08:39:51;;;;;;;;;;;18.70;85.10;;;19.18;44.93;98439.97;4918289;28;123964;-84
2023/08/31 08:42:19;;;;;;;;;;;18.70;84.90;;;19.18;45.23;98439.97;4928918;28;114255;-85
2023/08/31 08:44:46;;;;;;;;;;;18.80;85.10;;;19.23;44.92;98450.84;4921882;28;113761;-85
2023/08/31 08:47:15;;;;;;;;;;;18.80;85.00;;;19.31;44.23;98449.78;4929821;28;124572;-83
2023/08/31 08:49:42;;;;;;;;;;;18.80;83.90;;;19.35;44.62;98455.44;4925012;28;124165;-86
2023/08/31 08:52:09;;;;;;;;;;;18.90;84.10;;;19.35;43.85;98455.44;4930191;28;115290;-85
2023/08/31 08:54:35;;;;;;;;;;;18.90;83.10;;;19.30;43.97;98447.38;4927341;28;114687;-84
2023/08/31 08:57:03;;;;;;;;;;;18.90;83.10;;;19.26;44.19;98458.50;4942695;28;125930;-85
2023/08/31 08:59:32;;;;;;;;;;;18.90;83.10;;;19.27;44.24;98462.94;4960812;28;123946;-84
2023/08/31 09:01:59;;;;;;;;;;;18.90;83.30;;;19.29;44.63;98452.16;4947205;28;114567;-85
2023/08/31 09:04:27;;;;;;;;;;;18.90;83.30;;;19.35;43.94;98464.66;4927958;28;113427;-86
2023/08/31 09:06:56;;;;;;;;;;;18.90;82.30;;;19.35;43.37;98461.03;4945767;28;124343;-85
2023/08/31 09:09:22;;;;;;;;;;;18.90;81.80;;;19.37;44.02;98470.69;4949306;28;123962;-85
2023/08/31 09:11:50;;;;;;;;;;;19.00;82.20;;;19.43;44.21;98469.16;4937955;28;114631;-85
2023/08/31 09:14:19;;;;;;;;;;;19.00;82.90;;;19.49;44.61;98471.63;4933203;28;113796;-84
2023/08/31 09:16:48;;;;;;;;;;;19.10;83.50;;;19.56;44.46;98477.34;4924471;28;125014;-83
2023/08/31 09:19:22;;;;;;;;;;;19.10;83.20;;;19.61;44.08;98483.41;4914451;28;122998;-85
2023/08/31 09:21:49;;;;;;;;;;;19.20;83.00;;;19.61;43.73;98474.16;4934464;28;114727;-84
2023/08/31 09:24:17;;;;;;;;;;;19.20;82.40;;;19.60;44.30;98481.78;4932968;28;113251;-85
2023/08/31 09:26:57;;;;;;;;;;;19.20;82.70;;;19.62;44.19;98475.81;4949678;28;124245;-85
2023/08/31 09:29:23;;;;;;;;;;;19.20;82.70;;;19.67;44.31;98467.09;4945223;28;123865;-84
2023/08/31 09:31:50;;;;;;;;;;;19.30;82.80;;;19.72;44.65;98466.75;4921462;28;114430;-84
2023/08/31 09:34:18;;;;;;;;;;;19.30;83.10;;;19.76;44.11;98490.03;4965957;28;113509;-83
2023/08/31 09:36:44;;;;;;;;;;;19.40;83.00;;;19.77;43.42;98482.41;4956266;28;124242;-83
2023/08/31 09:39:14;;;;;;;;;;;19.40;81.60;;;19.70;43.16;98480.34;4931672;28;124184;-84
2023/08/31 09:41:55;;;;;;;;;;;19.40;80.90;;;19.68;43.31;98471.50;4940676;28;115786;-84
2023/08/31 09:44:22;;;;;;;;;;;19.40;81.00;;;19.72;42.91;98468.72;4906748;28;114401;-84
2023/08/31 09:46:52;;;;;;;;;;;17.50;78.50;;;19.80;42.81;98464.81;4965081;28;123222;-83
2023/08/31 09:49:20;;;;;;;;;;;19.40;80.60;;;19.88;42.03;98474.13;4925084;28;124150;-83
2023/08/31 09:51:49;;;;;;;;;;;19.50;79.30;;;19.94;41.84;98467.00;4941499;28;114335;-83
2023/08/31 09:54:18;;;;;;;;;;;19.50;78.50;;;19.97;39.94;98469.03;4927884;28;113701;-83
2023/08/31 09:56:49;;;;;;;;;;;19.60;75.90;;;19.98;39.32;98471.44;4943981;28;124057;-83
2023/08/31 09:59:16;;;;;;;;;;;19.60;74.30;;;19.99;39.48;98469.47;4917699;28;123072;-81
2023/08/31 10:01:44;;;;;;;;;;;19.60;74.30;;;19.99;38.36;98483.50;4950314;28;114436;-84
2023/08/31 10:04:12;;;;;;;;;;;19.60;72.80;;;20.02;38.85;98477.91;4951486;28;113617;-84
2023/08/31 10:06:42;;;;;;;;;;;19.60;72.80;;;20.06;38.10;98480.75;4921348;28;122676;-84
2023/08/31 10:09:12;;;;;;;;;;;19.60;72.10;;;20.06;38.04;98472.34;4948441;28;124053;-84
2023/08/31 10:11:39;;;;;;;;;;;19.60;71.50;;;20.08;38.42;98469.97;4950718;28;114668;-83
2023/08/31 10:14:08;;;;;;;;;;;19.70;71.90;;;20.11;38.79;98480.41;4934432;28;113952;-83
2023/08/31 10:16:34;;;;;;;;;;;19.70;72.20;;;20.16;38.73;98476.47;4934703;28;123976;-85
2023/08/31 10:19:04;;;;;;;;;;;19.80;72.60;;;20.20;38.00;98486.53;4958972;28;123989;-83
2023/08/31 10:21:31;;;;;;;;;;;19.80;70.90;;;20.18;37.35;98486.09;4938457;28;114155;-83
2023/08/31 10:23:58;;;;;;;;;;;19.80;69.90;;;20.14;37.71;98476.84;4937768;28;113819;-84
2023/08/31 10:26:26;;;;;;;;;;;19.80;69.90;;;20.13;37.83;98477.25;4934347;28;123527;-84
2023/08/31 10:28:52;;;;;;;;;;;19.80;70.20;;;20.14;38.36;98487.25;4949518;28;123766;-82
2023/08/31 10:31:22;;;;;;;;;;;19.80;70.80;;;20.13;38.14;98486.44;4930229;28;115095;-84
2023/08/31 10:33:55;;;;;;;;;;;19.80;70.90;;;20.12;38.32;98476.41;4935230;28;113658;-85
2023/08/31 10:36:21;;;;;;;;;;;19.80;71.00;;;20.12;38.53;98501.66;4917343;28;124442;-85
2023/08/31 10:39:00;;;;;;;;;;;19.90;71.40;;;20.14;38.90;98484.44;4930346;28;124870;-84
2023/08/31 10:41:33;;;;;;;;;;;19.80;71.50;;;20.22;38.91;98481.31;4932382;28;115088;-84
2023/08/31 10:44:00;;;;;;;;;;;19.90;71.80;;;20.30;38.80;98483.00;4949667;28;113059;-83
2023/08/31 10:46:30;;;;;;;;;;;19.90;71.50;;;20.34;38.35;98488.69;4947239;28;123162;-84
2023/08/31 10:48:58;;;;;;;;;;;19.90;71.20;;;20.38;37.86;98480.28;4948680;28;124006;-84
2023/08/31 10:51:26;;;;;;;;;;;20.00;70.50;;;20.40;37.93;98497.56;4931922;28;114405;-84
2023/08/31 10:54:10;;;;;;;;;;;20.00;69.90;;;20.41;37.32;98490.75;4920512;28;113612;-84
2023/08/31 10:57:00;;;;;;;;;;;20.00;69.20;;;20.40;37.58;98489.13;4956756;28;124425;-84
2023/08/31 10:59:44;;;;;;;;;;;18.80;68.00;;;20.43;37.09;98494.78;4952436;28;123744;-85
2023/08/31 11:02:27;;;;;;;;;;;20.10;68.80;;;20.39;37.33;98487.50;4932370;28;114660;-84
2023/08/31 11:05:10;;;;;;;;;;;20.00;68.70;;;20.37;37.72;98485.09;4935938;28;113992;-86
2023/08/31 11:07:41;;;;;;;;;;;20.00;68.80;;;20.34;37.72;98501.88;4924484;28;124177;-85
2023/08/31 11:10:19;;;;;;;;;;;20.00;69.50;;;20.35;38.41;98492.28;4957255;28;124677;-84
2023/08/31 11:12:47;;;;;;;;;;;20.00;70.10;;;20.35;38.67;98489.47;4952151;28;114712;-83
2023/08/31 11:15:18;;;;;;;;;;;20.00;70.30;;;20.36;39.04;98491.09;4965475;28;113968;-84